Terminal Aerodrome Forecast
Issued by NWS Nashville, TN

Home | Current Version | Previous Version | Text Only | Print | Product List | Glossary On
Versions: 1 2 3 4 5 6 7 8 9 10 11 12 13 14 15 16 17 18 19 20 21 22 23 24 25 26 27 28 29 30
000
FTUS44 KOHX 281100
TAFCSV
TAF
KCSV 281120Z 2812/2912 04004KT P6SM SKC
     FM281500 05008KT P6SM BKN250
     FM290100 05003KT P6SM OVC080
     FM290700 04003KT P6SM OVC035
     FM290900 04003KT 3SM BR VCSH OVC015=

USA.gov is the U.S. government's official web portal to all federal, state and local government web resources and services.